Time;durP1;ratioP1;P1;durP2;ratioP2;P2;SDS_P1;SDS_P2;PMS_P1;PMS_P2;Temp;Humidity;BMP_temperature;BMP_pressure;BME280_temperature;BME280_humidity;BME280_pressure;Samples;Min_cycle;Max_cycle;Signal;HPM_P1;HPM_P2
2022/01/05 00:00:29;;;;;;;;;2.33;1.33;;;;;5.07;73.93;100237.97;5069498;27;46105;-72
2022/01/05 00:02:54;;;;;;;;;1.00;1.00;;;;;5.09;73.69;100256.28;5072182;28;45414;-72
2022/01/05 00:05:20;;;;;;;;;2.00;1.00;;;;;5.04;73.15;100259.34;5069981;27;45372;-71
2022/01/05 00:07:45;;;;;;;;;2.00;2.00;;;;;4.95;73.53;100253.16;5065396;27;45355;-71
2022/01/05 00:10:11;;;;;;;;;2.00;1.33;;;;;4.96;74.56;100262.72;5072050;28;46190;-72
2022/01/05 00:12:37;;;;;;;;;3.67;1.67;;;;;4.97;74.74;100258.28;5071194;28;45364;-72
2022/01/05 00:15:04;;;;;;;;;1.00;1.00;;;;;4.86;75.09;100251.41;5086154;27;45309;-72
2022/01/05 00:17:29;;;;;;;;;2.33;2.00;;;;;4.86;74.38;100267.22;5068613;28;45507;-72
2022/01/05 00:19:55;;;;;;;;;1.00;1.00;;;;;4.89;74.69;100288.84;5069668;27;45922;-72
2022/01/05 00:22:20;;;;;;;;;2.33;2.00;;;;;4.82;75.21;100282.47;5069962;27;45529;-72
2022/01/05 00:24:46;;;;;;;;;1.00;1.00;;;;;4.75;74.40;100276.16;5070593;27;45805;-72
2022/01/05 00:27:11;;;;;;;;;3.00;1.00;;;;;4.72;75.23;100281.72;5070974;28;46001;-72
2022/01/05 00:29:37;;;;;;;;;3.33;3.33;;;;;4.78;75.54;100300.41;5070175;27;46122;-72
2022/01/05 00:32:02;;;;;;;;;1.67;1.67;;;;;4.74;75.25;100290.31;5071375;28;45329;-71
2022/01/05 00:34:28;;;;;;;;;1.00;1.00;;;;;4.72;75.11;100293.06;5071670;28;45439;-71
2022/01/05 00:36:53;;;;;;;;;2.00;2.00;;;;;4.73;75.27;100307.09;5075509;27;45503;-72
2022/01/05 00:39:18;;;;;;;;;2.00;1.50;;;;;4.52;74.91;100273.94;5063814;27;45381;-72
2022/01/05 00:41:44;;;;;;;;;0.67;0.67;;;;;4.59;75.26;100296.06;5074259;28;45451;-72
2022/01/05 00:44:09;;;;;;;;;4.00;2.00;;;;;4.60;75.06;100302.13;5076784;28;45886;-72
2022/01/05 00:46:34;;;;;;;;;2.33;2.00;;;;;4.61;74.99;100309.06;5079090;28;45385;-72
2022/01/05 00:49:00;;;;;;;;;2.00;1.00;;;;;4.58;75.46;100306.72;5070032;28;45419;-72
2022/01/05 00:51:25;;;;;;;;;2.00;2.00;;;;;4.45;74.50;100292.09;5070096;28;45818;-72
2022/01/05 00:53:50;;;;;;;;;3.67;3.67;;;;;4.51;75.10;100307.31;5068968;28;45338;-72
2022/01/05 00:56:16;;;;;;;;;1.67;1.67;;;;;4.45;75.05;100304.41;5069442;27;45364;-72
2022/01/05 00:58:41;;;;;;;;;2.67;2.67;;;;;4.50;75.27;100323.25;5069071;27;46083;-72
2022/01/05 01:01:07;;;;;;;;;4.67;3.00;;;;;4.47;74.95;100315.63;5066682;27;45323;-72
2022/01/05 01:03:32;;;;;;;;;4.00;3.00;;;;;4.35;74.76;100301.84;5071477;28;45492;-73
2022/01/05 01:06:01;;;;;;;;;2.00;2.00;;;;;4.46;75.79;100327.16;5068850;28;46278;-72
2022/01/05 01:08:26;;;;;;;;;3.33;3.33;;;;;4.40;75.07;100325.94;5065971;27;46180;-72
2022/01/05 01:10:52;;;;;;;;;2.00;2.00;;;;;4.42;75.34;100329.22;5069177;27;45325;-72
2022/01/05 01:13:19;;;;;;;;;4.33;3.00;;;;;4.32;75.39;100318.75;5069750;28;45494;-72
2022/01/05 01:15:48;;;;;;;;;1.00;1.00;;;;;4.41;75.82;100341.56;5068485;28;45311;-72
2022/01/05 01:18:15;;;;;;;;;5.00;3.00;;;;;4.44;75.71;100347.50;5068147;28;46244;-71
2022/01/05 01:20:41;;;;;;;;;4.00;3.33;;;;;4.41;74.98;100346.84;5069684;28;45257;-72
2022/01/05 01:23:07;;;;;;;;;3.67;2.67;;;;;4.33;75.73;100340.59;5068960;28;45391;-72
2022/01/05 01:25:33;;;;;;;;;3.00;2.00;;;;;4.37;75.35;100350.69;5069652;28;45381;-72
2022/01/05 01:27:59;;;;;;;;;3.00;2.33;;;;;4.31;75.18;100353.09;5069280;28;46157;-72
2022/01/05 01:30:24;;;;;;;;;3.33;2.00;;;;;4.32;75.43;100354.75;5070585;28;45393;-72
2022/01/05 01:32:50;;;;;;;;;3.33;3.00;;;;;4.27;75.24;100358.63;5068931;27;45320;-72
2022/01/05 01:35:15;;;;;;;;;1.33;1.33;;;;;4.21;75.49;100355.72;5069896;27;45427;-72
2022/01/05 01:37:41;;;;;;;;;2.33;2.33;;;;;4.23;76.17;100365.16;5081575;27;45343;-72
2022/01/05 01:40:07;;;;;;;;;3.00;1.67;;;;;4.33;75.81;100383.53;5071221;28;45393;-72
2022/01/05 01:42:33;;;;;;;;;2.00;1.33;;;;;4.34;76.03;100385.19;5060889;28;45578;-72
2022/01/05 01:44:59;;;;;;;;;4.67;3.00;;;;;4.26;75.41;100379.81;5068049;28;45248;-72
2022/01/05 01:47:24;;;;;;;;;3.00;2.67;;;;;4.32;75.91;100394.22;5064540;28;47438;-72
2022/01/05 01:49:49;;;;;;;;;3.33;3.00;;;;;4.31;75.54;100398.63;5068449;27;45406;-72
2022/01/05 01:52:15;;;;;;;;;4.00;3.00;;;;;4.25;75.77;100393.97;5068891;27;45326;-71
2022/01/05 01:54:40;;;;;;;;;4.33;2.00;;;;;4.26;75.37;100406.97;5070704;27;45326;-72
2022/01/05 01:57:07;;;;;;;;;2.00;2.00;;;;;4.22;75.67;100402.94;5068993;28;45340;-72
2022/01/05 01:59:33;;;;;;;;;2.00;2.00;;;;;4.22;75.61;100416.09;5086580;27;45370;-72
2022/01/05 02:01:59;;;;;;;;;6.00;4.00;;;;;4.20;75.62;100411.94;5073805;27;45377;-72
2022/01/05 02:04:25;;;;;;;;;4.33;3.33;;;;;4.16;76.11;100409.59;5069336;28;46187;-72
2022/01/05 02:06:51;;;;;;;;;7.00;5.00;;;;;4.14;75.62;100413.34;5066835;27;45596;-72
2022/01/05 02:09:16;;;;;;;;;6.67;6.67;;;;;4.12;75.89;100413.50;5077637;28;45597;-71
2022/01/05 02:11:42;;;;;;;;;3.67;3.00;;;;;4.16;76.41;100428.00;5076712;28;45378;-72
2022/01/05 02:14:07;;;;;;;;;8.33;5.33;;;;;4.15;76.19;100430.78;5071850;27;45464;-72
2022/01/05 02:16:38;;;;;;;;;7.67;5.33;;;;;4.07;76.13;100420.16;5063779;28;47048;-72
2022/01/05 02:19:03;;;;;;;;;4.00;3.67;;;;;4.12;76.16;100437.16;5074824;28;45289;-72
2022/01/05 02:21:35;;;;;;;;;7.00;7.00;;;;;4.07;75.79;100436.72;5073794;28;45318;-72
2022/01/05 02:24:02;;;;;;;;;3.33;3.00;;;;;4.09;76.26;100437.44;5073704;28;45475;-72
2022/01/05 02:26:28;;;;;;;;;3.00;3.00;;;;;3.98;76.56;100427.06;5072580;28;48149;-72
2022/01/05 02:28:54;;;;;;;;;3.00;3.00;;;;;3.98;76.11;100429.69;5074613;28;45762;-72
2022/01/05 02:31:19;;;;;;;;;4.67;4.00;;;;;4.05;75.88;100441.31;5080755;28;45393;-72
2022/01/05 02:33:45;;;;;;;;;5.33;4.33;;;;;4.08;76.43;100448.94;5071555;27;45342;-72
2022/01/05 02:36:14;;;;;;;;;3.00;3.00;;;;;4.07;76.21;100439.38;5072723;27;46178;-72
2022/01/05 02:38:40;;;;;;;;;1.33;1.33;;;;;4.11;76.54;100448.66;5085782;27;45441;-71
2022/01/05 02:41:09;;;;;;;;;4.00;3.00;;;;;4.12;76.85;100441.59;5071232;28;45313;-72
2022/01/05 02:43:36;;;;;;;;;4.00;3.00;;;;;4.19;76.52;100457.66;5070814;28;46123;-72
2022/01/05 02:46:03;;;;;;;;;2.33;2.00;;;;;4.23;76.58;100470.41;5079663;28;48103;-71
2022/01/05 02:48:29;;;;;;;;;2.33;2.33;;;;;4.17;76.75;100457.78;5077041;28;45389;-72
2022/01/05 02:50:56;;;;;;;;;2.67;1.67;;;;;4.24;76.69;100458.06;5073447;28;45807;-72
2022/01/05 02:53:22;;;;;;;;;7.00;5.00;;;;;4.20;76.40;100462.78;5073282;28;45414;-72
2022/01/05 02:55:47;;;;;;;;;10.67;8.33;;;;;4.20;75.90;100468.03;5071681;28;45297;-72
2022/01/05 02:58:12;;;;;;;;;12.00;9.00;;;;;4.08;76.04;100450.72;5080191;28;45378;-72
2022/01/05 03:00:38;;;;;;;;;9.00;9.00;;;;;4.02;76.51;100452.97;5071307;27;45353;-72
2022/01/05 03:03:03;;;;;;;;;8.00;8.00;;;;;4.10;76.27;100470.66;5072215;27;45511;-72
2022/01/05 03:05:28;;;;;;;;;7.67;6.33;;;;;3.99;76.30;100458.50;5072814;28;46397;-72
2022/01/05 03:07:54;;;;;;;;;7.33;7.33;;;;;4.04;76.35;100471.19;5072652;28;45390;-71
2022/01/05 03:10:20;;;;;;;;;5.00;3.67;;;;;4.01;76.24;100482.84;5070742;27;45338;-72
2022/01/05 03:12:45;;;;;;;;;5.33;5.33;;;;;3.95;76.52;100479.94;5063955;28;45384;-72
2022/01/05 03:15:11;;;;;;;;;4.00;4.00;;;;;3.91;76.24;100479.38;5070404;28;45303;-72
2022/01/05 03:17:37;;;;;;;;;3.33;3.00;;;;;3.87;76.18;100484.09;5069998;28;45330;-71
2022/01/05 03:20:02;;;;;;;;;5.00;5.00;;;;;3.90;76.46;100494.31;5070943;27;45252;-71
2022/01/05 03:22:28;;;;;;;;;2.33;2.00;;;;;3.84;76.69;100489.63;5067543;28;45526;-72
2022/01/05 03:24:53;;;;;;;;;5.00;4.00;;;;;3.90;75.91;100506.63;5059362;28;48168;-72
2022/01/05 03:27:19;;;;;;;;;7.00;5.00;;;;;3.86;76.74;100513.97;5060831;28;45428;-72
2022/01/05 03:29:44;;;;;;;;;8.00;5.00;;;;;3.84;76.51;100510.66;5061596;28;45575;-72
2022/01/05 03:32:10;;;;;;;;;3.00;3.00;;;;;3.77;76.15;100509.53;5060153;28;45876;-72
2022/01/05 03:34:37;;;;;;;;;4.00;3.00;;;;;3.76;76.32;100513.94;5061230;28;45347;-72
2022/01/05 03:37:03;;;;;;;;;5.33;3.00;;;;;3.69;76.24;100512.00;5071804;27;45276;-72
2022/01/05 03:39:28;;;;;;;;;2.33;2.00;;;;;3.76;76.28;100540.25;5101109;27;45538;-72
2022/01/05 03:41:54;;;;;;;;;2.33;2.33;;;;;3.62;76.44;100512.53;5100433;27;47050;-72
2022/01/05 03:44:19;;;;;;;;;2.00;2.00;;;;;3.77;76.50;100520.03;5101956;27;45394;-72
2022/01/05 03:46:45;;;;;;;;;2.00;2.00;;;;;3.78;75.83;100534.84;5102064;27;45256;-71
2022/01/05 03:49:10;;;;;;;;;4.00;3.00;;;;;3.70;76.38;100525.00;5102168;27;45513;-72
2022/01/05 03:51:35;;;;;;;;;4.00;3.33;;;;;3.72;76.13;100538.00;5101870;27;45455;-72
2022/01/05 03:54:01;;;;;;;;;2.33;2.00;;;;;3.71;75.50;100531.91;5101887;27;45905;-72
2022/01/05 03:56:26;;;;;;;;;2.67;2.00;;;;;3.76;75.89;100544.66;5100593;27;45376;-72
2022/01/05 03:58:52;;;;;;;;;2.00;1.67;;;;;3.71;75.43;100544.25;5101962;27;45384;-72
2022/01/05 04:01:17;;;;;;;;;3.00;3.00;;;;;3.69;76.01;100539.13;5100412;27;47045;-72
2022/01/05 04:03:43;;;;;;;;;2.00;2.00;;;;;3.70;76.38;100545.19;5101780;27;46003;-72
2022/01/05 04:06:08;;;;;;;;;5.67;2.00;;;;;3.70;75.88;100561.81;5101441;27;45305;-72
2022/01/05 04:08:33;;;;;;;;;3.00;2.00;;;;;3.70;76.63;100560.97;5100631;27;45281;-72
2022/01/05 04:10:59;;;;;;;;;2.00;2.00;;;;;3.76;76.14;100563.06;5101841;27;45236;-73
2022/01/05 04:13:24;;;;;;;;;2.00;2.00;;;;;3.72;75.52;100553.78;5101606;27;46432;-72
2022/01/05 04:15:50;;;;;;;;;2.00;2.00;;;;;3.71;75.86;100552.94;5101616;27;45341;-72
2022/01/05 04:18:15;;;;;;;;;3.67;3.67;;;;;3.71;75.72;100546.88;5100297;27;45371;-72
2022/01/05 04:20:40;;;;;;;;;2.00;2.00;;;;;3.77;76.11;100565.56;5101353;27;45347;-72
2022/01/05 04:23:06;;;;;;;;;4.33;2.33;;;;;3.73;75.55;100564.16;5101509;27;45666;-72
2022/01/05 04:25:33;;;;;;;;;2.00;1.33;;;;;3.75;76.22;100561.41;5100040;27;45292;-72
2022/01/05 04:27:59;;;;;;;;;3.33;2.33;;;;;3.74;75.47;100557.94;5100372;27;45295;-72
2022/01/05 04:30:25;;;;;;;;;2.67;2.67;;;;;3.71;76.25;100557.38;5101196;27;45403;-72
2022/01/05 04:32:50;;;;;;;;;4.00;3.00;;;;;3.69;75.80;100559.31;5099859;27;48253;-72
2022/01/05 04:35:16;;;;;;;;;4.67;3.33;;;;;3.57;75.65;100551.53;5101106;27;45275;-72
2022/01/05 04:37:41;;;;;;;;;4.00;4.00;;;;;3.70;75.20;100560.97;5090799;27;45305;-72
2022/01/05 04:40:11;;;;;;;;;1.33;1.33;;;;;3.64;75.57;100571.06;5080851;27;45480;-73
2022/01/05 04:42:37;;;;;;;;;3.00;3.00;;;;;3.70;75.97;100571.47;5080861;27;45299;-72
2022/01/05 04:45:03;;;;;;;;;2.67;1.67;;;;;3.73;75.92;100581.72;5080560;28;45160;-72
2022/01/05 04:47:28;;;;;;;;;3.33;3.33;;;;;3.73;75.48;100581.72;5079494;28;45365;-72
2022/01/05 04:49:53;;;;;;;;;2.67;2.33;;;;;3.61;76.04;100567.84;5080386;27;45315;-72
2022/01/05 04:52:19;;;;;;;;;1.33;0.33;;;;;3.66;76.10;100582.25;5079157;28;46952;-72
2022/01/05 04:54:46;;;;;;;;;1.00;1.00;;;;;3.68;76.98;100594.44;5079304;28;45401;-71
2022/01/05 04:57:13;;;;;;;;;2.00;2.00;;;;;3.60;76.93;100577.56;5080808;27;45326;-72
2022/01/05 04:59:38;;;;;;;;;3.67;2.00;;;;;3.56;77.05;100589.25;5080222;27;45267;-72
2022/01/05 05:02:04;;;;;;;;;3.33;1.33;;;;;3.61;77.00;100602.03;5080389;27;45370;-72
2022/01/05 05:04:29;;;;;;;;;3.00;2.00;;;;;3.56;77.00;100607.66;5080086;28;45159;-72
2022/01/05 05:06:54;;;;;;;;;2.67;2.67;;;;;3.59;76.98;100617.09;5080580;27;45330;-72
2022/01/05 05:09:20;;;;;;;;;2.00;2.00;;;;;3.58;77.23;100618.03;5095947;27;47057;-72
2022/01/05 05:11:45;;;;;;;;;3.67;2.33;;;;;3.48;77.80;100610.97;5080251;27;45904;-72
2022/01/05 05:14:11;;;;;;;;;1.00;1.00;;;;;3.41;78.31;100615.91;5080329;27;45353;-71
2022/01/05 05:16:37;;;;;;;;;2.33;2.00;;;;;3.36;77.61;100612.00;5080431;27;45290;-72
2022/01/05 05:19:03;;;;;;;;;4.00;3.00;;;;;3.37;78.20;100619.75;5080265;27;45336;-72
2022/01/05 05:21:28;;;;;;;;;2.33;2.33;;;;;3.41;77.90;100621.16;5078528;28;48212;-71
2022/01/05 05:23:53;;;;;;;;;3.33;2.33;;;;;3.42;78.67;100635.13;5080215;27;45398;-72
2022/01/05 05:26:18;;;;;;;;;2.33;2.33;;;;;3.40;78.58;100643.16;5080185;27;45484;-72
2022/01/05 05:28:44;;;;;;;;;2.00;2.00;;;;;3.39;78.86;100644.09;5078597;28;47027;-72
2022/01/05 05:31:09;;;;;;;;;4.00;2.33;;;;;3.41;78.93;100646.59;5079875;27;45316;-72
2022/01/05 05:33:35;;;;;;;;;3.33;2.33;;;;;3.28;78.13;100623.16;5079542;28;45714;-72
2022/01/05 05:36:02;;;;;;;;;2.00;2.00;;;;;3.34;79.07;100635.78;5079885;27;45314;-73
2022/01/05 05:38:28;;;;;;;;;2.00;2.00;;;;;3.34;78.86;100643.66;5096984;27;45471;-72
2022/01/05 05:40:53;;;;;;;;;6.67;3.00;;;;;3.34;79.29;100646.28;5100285;27;46243;-72
2022/01/05 05:43:19;;;;;;;;;11.75;11.00;;;;;3.50;79.21;100672.09;5100178;27;45408;-72
2022/01/05 05:45:44;;;;;;;;;2.67;2.67;;;;;3.50;79.05;100669.47;5100451;27;45417;-71
2022/01/05 05:48:09;;;;;;;;;3.00;3.00;;;;;3.48;78.72;100657.44;5100161;27;45267;-72
2022/01/05 05:50:35;;;;;;;;;3.00;2.00;;;;;3.45;79.14;100658.53;5100089;27;45501;-71
2022/01/05 05:53:00;;;;;;;;;3.67;3.67;;;;;3.39;79.03;100665.09;5098658;27;45381;-72
2022/01/05 05:55:26;;;;;;;;;3.00;3.00;;;;;3.32;78.44;100657.91;5098932;27;45448;-72
2022/01/05 05:57:51;;;;;;;;;8.00;8.00;;;;;3.28;78.96;100655.53;5100249;27;45337;-72
2022/01/05 06:00:17;;;;;;;;;14.25;13.50;;;;;3.12;79.11;100645.44;5099847;27;45324;-72
2022/01/05 06:02:43;;;;;;;;;3.33;3.33;;;;;3.21;77.80;100664.03;5065119;27;45375;-72
2022/01/05 06:05:08;;;;;;;;;4.00;3.00;;;;;3.15;78.31;100658.31;5072027;27;45556;-72
2022/01/05 06:07:33;;;;;;;;;3.33;2.00;;;;;3.08;78.33;100656.34;5077796;28;46442;-71
2022/01/05 06:09:59;;;;;;;;;6.00;6.00;;;;;3.15;78.20;100668.81;5079409;27;46250;-72
2022/01/05 06:12:25;;;;;;;;;6.00;4.00;;;;;3.09;77.81;100661.47;5079489;27;45374;-72
2022/01/05 06:14:50;;;;;;;;;4.00;4.00;;;;;3.09;78.52;100663.25;5079512;28;45330;-72
2022/01/05 06:17:16;;;;;;;;;4.00;2.00;;;;;3.04;78.54;100658.38;5079330;27;45475;-72
2022/01/05 06:19:41;;;;;;;;;3.00;3.00;;;;;3.03;78.11;100661.97;5077662;28;47975;-72
2022/01/05 06:22:07;;;;;;;;;3.00;3.00;;;;;2.89;78.91;100648.19;5079466;27;45324;-72
2022/01/05 06:24:34;;;;;;;;;3.67;3.00;;;;;3.09;78.79;100673.78;5079670;27;45308;-71
2022/01/05 06:27:00;;;;;;;;;6.33;3.00;;;;;3.00;78.24;100678.00;5079085;27;45467;-72
2022/01/05 06:29:25;;;;;;;;;2.00;2.00;;;;;3.04;78.53;100671.50;5079067;27;46128;-72
2022/01/05 06:31:50;;;;;;;;;7.33;5.67;;;;;3.05;78.77;100681.06;5077205;28;45375;-72
2022/01/05 06:34:16;;;;;;;;;9.33;8.00;;;;;3.07;78.79;100694.06;5071198;28;45251;-73
2022/01/05 06:36:41;;;;;;;;;3.33;3.33;;;;;3.01;78.97;100685.75;5070434;27;45422;-73
2022/01/05 06:39:06;;;;;;;;;4.00;4.00;;;;;3.00;78.57;100678.81;5059913;27;45272;-73
2022/01/05 06:41:32;;;;;;;;;4.00;4.00;;;;;3.12;79.33;100679.59;5074565;28;45265;-72
2022/01/05 06:43:57;;;;;;;;;2.67;2.00;;;;;3.17;78.95;100684.47;5060881;28;45321;-72
2022/01/05 06:46:22;;;;;;;;;3.67;3.67;;;;;3.22;78.60;100705.09;5076559;28;45578;-74
2022/01/05 06:48:48;;;;;;;;;3.33;3.00;;;;;3.12;78.45;100684.84;5082464;27;46195;-73
2022/01/05 06:51:13;;;;;;;;;4.00;4.00;;;;;3.30;78.31;100723.72;5081189;28;46027;-73
2022/01/05 06:53:40;;;;;;;;;12.00;9.33;;;;;3.20;79.10;100696.53;5098325;27;45338;-72
2022/01/05 06:56:06;;;;;;;;;7.67;7.67;;;;;3.28;79.27;100723.84;5081184;28;45362;-72
2022/01/05 06:58:31;;;;;;;;;4.00;4.00;;;;;3.28;79.26;100723.84;5082233;28;46020;-73
2022/01/05 07:00:56;;;;;;;;;4.33;3.33;;;;;3.28;78.57;100720.34;5081054;28;45327;-73
2022/01/05 07:03:22;;;;;;;;;6.00;6.00;;;;;3.24;78.45;100722.41;5082668;28;45248;-72
2022/01/05 07:05:47;;;;;;;;;11.67;11.33;;;;;3.18;79.16;100735.22;5081847;28;45353;-73
2022/01/05 07:08:13;;;;;;;;;14.00;14.00;;;;;3.18;78.84;100745.72;5082045;27;45374;-72
2022/01/05 07:10:38;;;;;;;;;17.75;14.25;;;;;3.09;78.74;100740.28;5075737;28;45997;-75
2022/01/05 07:13:04;;;;;;;;;18.50;18.25;;;;;2.96;79.02;100731.72;5070441;28;45493;-75
2022/01/05 07:15:29;;;;;;;;;22.25;18.75;;;;;2.83;79.39;100732.69;5071760;28;45322;-75
2022/01/05 07:17:54;;;;;;;;;8.75;8.50;;;;;2.82;79.40;100730.19;5078248;27;45275;-75
2022/01/05 07:20:20;;;;;;;;;9.00;9.00;;;;;2.84;79.22;100742.25;5081946;27;45305;-75
2022/01/05 07:22:45;;;;;;;;;8.25;8.25;;;;;2.89;80.38;100753.22;5082234;27;45282;-75
2022/01/05 07:25:10;;;;;;;;;9.75;9.75;;;;;2.78;79.34;100745.34;5081829;27;45463;-75
2022/01/05 07:27:37;;;;;;;;;29.75;29.75;;;;;2.83;79.94;100758.09;5080466;28;47543;-75
2022/01/05 07:30:04;;;;;;;;;21.00;15.75;;;;;2.81;80.45;100757.41;5071751;28;45413;-75
2022/01/05 07:32:30;;;;;;;;;14.75;14.75;;;;;2.68;80.14;100736.53;5077028;28;45276;-76
2022/01/05 07:34:55;;;;;;;;;17.50;15.25;;;;;2.69;80.25;100738.22;5061212;28;45385;-75
2022/01/05 07:37:21;;;;;;;;;12.00;12.00;;;;;2.70;80.35;100743.38;5076938;27;46106;-75
2022/01/05 07:39:46;;;;;;;;;21.25;21.25;;;;;2.77;80.52;100772.56;5102244;27;45293;-75
2022/01/05 07:42:12;;;;;;;;;23.50;22.75;;;;;2.69;81.09;100770.53;5100992;27;45450;-78
2022/01/05 07:44:38;;;;;;;;;42.50;35.50;;;;;2.82;80.28;100788.81;5100445;27;45816;-75
2022/01/05 07:47:04;;;;;;;;;42.00;39.00;;;;;2.63;80.23;100766.63;5100699;27;47147;-77
2022/01/05 07:49:30;;;;;;;;;21.25;21.25;;;;;2.75;80.67;100777.94;5101670;27;45317;-74
2022/01/05 07:51:55;;;;;;;;;17.75;12.00;;;;;2.80;80.39;100788.06;5102061;27;45255;-75
2022/01/05 07:54:20;;;;;;;;;8.25;7.50;;;;;2.76;80.96;100784.03;5101934;27;45408;-74
2022/01/05 07:56:46;;;;;;;;;7.33;7.33;;;;;2.70;80.94;100785.34;5101486;27;46094;-74
2022/01/05 07:59:11;;;;;;;;;6.75;6.75;;;;;2.72;80.40;100786.06;5100527;27;45376;-75
2022/01/05 08:01:36;;;;;;;;;4.00;4.00;;;;;2.70;81.12;100798.47;5102117;27;45425;-75
2022/01/05 08:04:02;;;;;;;;;11.75;8.25;;;;;2.81;80.11;100808.13;5101574;27;45324;-75
2022/01/05 08:06:28;;;;;;;;;11.00;7.67;;;;;2.74;80.58;100799.06;5101530;27;45256;-76
2022/01/05 08:08:53;;;;;;;;;13.75;12.25;;;;;2.73;80.79;100798.22;5100249;27;45301;-75
2022/01/05 08:11:19;;;;;;;;;8.75;8.00;;;;;2.73;80.37;100797.41;5100454;27;45331;-75
2022/01/05 08:13:44;;;;;;;;;8.00;8.00;;;;;2.87;80.43;100818.13;5101522;27;45279;-79
2022/01/05 08:16:10;;;;;;;;;6.00;6.00;;;;;2.86;80.77;100828.75;5101542;27;45422;-75
2022/01/05 08:18:36;;;;;;;;;8.00;8.00;;;;;2.95;80.04;100827.19;5101606;27;45392;-75
2022/01/05 08:21:02;;;;;;;;;7.00;5.67;;;;;2.90;80.62;100807.38;5100172;27;45353;-75
2022/01/05 08:23:29;;;;;;;;;6.67;6.67;;;;;2.92;80.21;100811.66;5101539;27;45668;-75
2022/01/05 08:25:54;;;;;;;;;13.00;10.33;;;;;2.89;80.84;100810.13;5101096;27;45370;-78
2022/01/05 08:28:19;;;;;;;;;7.50;7.00;;;;;3.07;80.66;100836.72;5101198;27;45298;-78
2022/01/05 08:30:46;;;;;;;;;9.00;7.33;;;;;3.09;80.02;100831.34;5101548;27;45215;-75
2022/01/05 08:33:14;;;;;;;;;9.33;7.00;;;;;3.11;80.75;100840.78;5101330;27;45460;-81
2022/01/05 08:35:40;;;;;;;;;5.33;5.33;;;;;3.02;80.21;100831.84;5072223;27;48251;-78
2022/01/05 08:38:06;;;;;;;;;9.00;7.33;;;;;3.14;80.71;100848.41;5091089;27;45344;-76
2022/01/05 08:40:34;;;;;;;;;8.00;8.00;;;;;3.19;80.94;100853.28;5101314;27;45346;-76
2022/01/05 08:43:00;;;;;;;;;12.50;11.75;;;;;3.13;80.98;100833.63;5101004;27;45246;-76
2022/01/05 08:45:26;;;;;;;;;7.67;6.00;;;;;3.10;79.79;100831.22;5099612;27;47357;-76
2022/01/05 08:47:53;;;;;;;;;1.00;0.67;;;;;3.20;80.16;100844.44;5099657;27;45637;-76
2022/01/05 08:50:24;;;;;;;;;9.33;8.33;;;;;3.13;79.90;100841.50;5099593;27;45397;-76
2022/01/05 08:52:50;;;;;;;;;9.00;9.00;;;;;3.15;80.10;100847.44;5099666;27;46644;-76
2022/01/05 08:55:18;;;;;;;;;7.67;7.00;;;;;3.20;79.85;100849.69;5100813;27;46238;-76
2022/01/05 08:57:44;;;;;;;;;3.67;3.67;;;;;3.27;80.30;100858.75;5101141;27;45417;-76
2022/01/05 09:00:11;;;;;;;;;7.00;6.00;;;;;3.32;80.22;100863.63;5100922;27;45490;-77
2022/01/05 09:02:38;;;;;;;;;6.00;5.33;;;;;3.30;79.81;100860.31;5099456;27;46381;-76
2022/01/05 09:05:05;;;;;;;;;7.67;6.33;;;;;3.33;79.91;100875.84;5100614;27;46449;-76
2022/01/05 09:07:31;;;;;;;;;9.33;8.00;;;;;3.18;80.22;100843.75;5102986;27;45348;-77
2022/01/05 09:09:56;;;;;;;;;6.00;3.67;;;;;3.35;80.40;100873.91;5102051;27;45478;-77
2022/01/05 09:12:22;;;;;;;;;11.67;5.33;;;;;3.40;80.12;100877.00;5101016;27;45238;-75
2022/01/05 09:14:47;;;;;;;;;7.00;7.00;;;;;3.39;80.24;100867.44;5100345;27;46454;-76
2022/01/05 09:17:12;;;;;;;;;6.33;6.33;;;;;3.50;80.35;100884.16;5099545;27;45374;-77
2022/01/05 09:19:38;;;;;;;;;3.00;2.00;;;;;3.53;79.92;100882.09;5098289;27;45543;-76
2022/01/05 09:22:04;;;;;;;;;4.67;4.67;;;;;3.50;80.15;100873.66;5096811;27;47315;-76
2022/01/05 09:24:32;;;;;;;;;5.33;5.33;;;;;3.60;80.18;100887.72;5096737;27;48051;-77
2022/01/05 09:27:02;;;;;;;;;7.00;4.33;;;;;3.52;80.64;100875.19;5096221;27;45444;-76
2022/01/05 09:29:29;;;;;;;;;6.67;6.67;;;;;3.64;80.51;100894.38;5113743;27;45421;-75
2022/01/05 09:31:55;;;;;;;;;5.67;5.67;;;;;3.70;80.12;100884.31;5114597;27;46053;-76
2022/01/05 09:34:21;;;;;;;;;5.33;5.33;;;;;3.71;80.18;100892.06;5098792;27;45482;-75
2022/01/05 09:36:50;;;;;;;;;4.67;4.67;;;;;3.82;80.01;100900.88;5097257;27;45370;-75
2022/01/05 09:42:01;;;;;;;;;10.00;8.33;;;;;3.91;80.03;100919.38;5079602;28;45289;-75
2022/01/05 09:44:31;;;;;;;;;4.67;4.67;;;;;3.94;79.94;100920.91;5078359;28;47423;-75
2022/01/05 09:47:37;;;;;;;;;9.67;9.00;;;;;3.96;79.77;100918.16;5079829;27;45310;-75
2022/01/05 09:50:06;;;;;;;;;8.67;7.00;;;;;4.05;79.75;100933.19;5070704;27;45173;-77
2022/01/05 09:52:34;;;;;;;;;6.67;6.33;;;;;4.08;79.26;100921.56;5078905;28;46312;-75
2022/01/05 09:55:01;;;;;;;;;9.67;8.00;;;;;4.13;79.29;100929.94;5078284;28;47740;-76
2022/01/05 09:57:28;;;;;;;;;7.33;7.33;;;;;4.20;79.79;100940.75;5079719;27;45295;-76
2022/01/05 09:59:55;;;;;;;;;8.33;7.00;;;;;4.07;79.36;100909.38;5078333;28;45331;-75
2022/01/05 10:02:21;;;;;;;;;4.00;4.00;;;;;4.22;79.30;100933.59;5080433;27;45543;-77
2022/01/05 10:04:46;;;;;;;;;8.00;8.00;;;;;4.33;79.20;100940.56;5079328;27;45304;-76
2022/01/05 10:07:14;;;;;;;;;4.00;3.67;;;;;4.22;78.88;100920.44;5078289;28;45730;-75
2022/01/05 10:09:41;;;;;;;;;4.00;4.00;;;;;4.38;79.03;100947.16;5078224;28;45346;-75
2022/01/05 10:12:08;;;;;;;;;4.00;4.00;;;;;4.34;79.21;100943.06;5079452;27;45427;-75
2022/01/05 10:14:33;;;;;;;;;5.00;5.00;;;;;4.39;78.14;100951.44;5077756;28;48260;-75
2022/01/05 10:17:02;;;;;;;;;3.00;3.00;;;;;4.42;78.60;100952.97;5078275;28;45973;-76
2022/01/05 10:19:27;;;;;;;;;4.67;4.67;;;;;4.41;78.48;100948.69;5078131;28;45302;-76
2022/01/05 10:21:53;;;;;;;;;4.00;4.00;;;;;4.58;78.47;100960.41;5098395;27;47492;-75
2022/01/05 10:24:45;;;;;;;;;7.00;5.00;;;;;4.68;78.49;100955.22;5082892;27;45379;-76
2022/01/05 10:27:22;;;;;;;;;3.67;3.67;;;;;4.76;78.37;100949.31;5082958;27;45392;-76
2022/01/05 10:30:20;;;;;;;;;5.67;5.67;;;;;4.89;77.83;100952.56;5082786;27;45212;-76
2022/01/05 10:32:46;;;;;;;;;5.33;4.00;;;;;5.00;77.50;100964.78;5071673;28;47225;-78
2022/01/05 10:35:16;;;;;;;;;8.67;4.00;;;;;5.04;77.54;100965.38;5072057;28;46077;-75
2022/01/05 10:37:56;;;;;;;;;5.00;4.00;;;;;4.87;76.55;100943.94;5072113;27;45276;-77
2022/01/05 10:40:22;;;;;;;;;7.67;5.00;;;;;5.07;77.48;100970.38;5064933;28;45415;-76
2022/01/05 10:42:50;;;;;;;;;5.00;5.00;;;;;5.12;77.66;100968.16;5077854;28;45472;-79
2022/01/05 10:45:18;;;;;;;;;4.00;4.00;;;;;5.16;76.96;100966.09;5064889;28;46547;-76
2022/01/05 10:48:03;;;;;;;;;8.00;4.33;;;;;5.34;76.98;100974.22;5063105;28;45363;-77
2022/01/05 10:50:29;;;;;;;;;5.33;5.00;;;;;5.39;76.85;100977.28;5079953;28;45671;-76
2022/01/05 10:52:56;;;;;;;;;4.33;3.33;;;;;5.43;76.93;100970.78;5079836;28;46237;-78
2022/01/05 10:55:24;;;;;;;;;3.67;3.67;;;;;5.59;75.95;100985.25;5063846;28;47571;-77
2022/01/05 10:58:07;;;;;;;;;4.00;4.00;;;;;5.62;76.54;100979.69;5061694;28;45272;-77
2022/01/05 11:00:37;;;;;;;;;4.00;4.00;;;;;5.56;75.35;100978.44;5064257;28;45415;-83
2022/01/05 11:03:21;;;;;;;;;6.00;4.00;;;;;5.55;75.92;100984.69;5067163;28;45211;-78
2022/01/05 11:06:09;;;;;;;;;4.00;4.00;;;;;5.57;75.81;100987.19;5061281;28;47427;-77
2022/01/05 11:08:48;;;;;;;;;4.00;4.00;;;;;5.58;75.81;100988.00;5054862;28;45378;-76
2022/01/05 11:11:38;;;;;;;;;8.33;5.00;;;;;5.45;75.75;100959.25;5062129;28;45415;-77
2022/01/05 11:14:10;;;;;;;;;5.00;4.00;;;;;5.60;75.61;100989.53;5060682;28;46128;-77
2022/01/05 11:16:38;;;;;;;;;5.67;3.00;;;;;5.60;74.42;100973.72;5062223;28;45284;-74
2022/01/05 11:19:17;;;;;;;;;4.67;3.00;;;;;5.64;73.99;100979.56;5079744;28;45789;-77
2022/01/05 11:21:55;;;;;;;;;6.00;5.00;;;;;5.51;74.03;100954.25;5062936;28;45358;-76
2022/01/05 11:24:23;;;;;;;;;1.67;1.67;;;;;5.66;72.48;100978.44;5064363;28;46120;-78
2022/01/05 11:26:48;;;;;;;;;6.67;4.00;;;;;5.69;72.91;100985.28;5062100;28;46671;-76
2022/01/05 11:29:14;;;;;;;;;2.33;2.33;;;;;5.62;73.83;100974.41;5061293;28;45165;-76
2022/01/05 11:31:40;;;;;;;;;4.67;2.00;;;;;5.76;73.51;100977.63;5059881;28;45372;-77